> <
  • 1
  • 2

Novidades

  • Temos o prazer de lhe apresentar… Ler mais +
  • Está disponível a secção Multimédia no… Ler mais +
  • 1
[source: ADDS]
METAR
LPPR 172000Z 15008KT CAVOK 11/06 Q1024 =
TAF LPPR 171700Z 1718/1818 14008KT CAVOK BECMG 1801/1804 16015KT 9999 FEW015 BKN035 BECMG 1806/1809 19018KT 5000 -RA BR SCT006 BKN012 TEMPO 1809/1816 19025G38KT 3000 RADZ BR SCT003 BKN006 BECMG 1816/1818 26012KT BKN020
TAF
TAF LPPR 171700Z 1718/1818 14008KT CAVOK BECMG 1801/1804 16015KT 9999 FEW015 BKN035 BECMG 1806/1809 19018KT 5000 -RA BR SCT006 BKN012 TEMPO 1809/1816 19025G38KT 3000 RADZ BR SCT003 BKN006 BECMG 1816/1818 26012KT BKN020 =

contactos